Anderson Regional Airport
KAND : now visible

Airfield :











YOU CAN JOIN US ON...

 
LOGIN :

Register | Disclaimer

   EN    FR    IT 

 









Legend :    VFR   Marginal VFR   IFR   Intensive IFR   Very Intensive IFR
Visi :
Ceiling :
>= 8 km
>= 3000ft
5 to 8 km
1000 to 3000 ft
1500m to 5 km
500 to 1000 ft
800 to 1500m
200 to 500 ft
< 800m
< 200 ft
Symbols :   Thunderstorms  Fog  Heavy snow  Heavy precipitations  Wind > 20 kt






- Airport Elevation : 782 ft


KAND - Anderson Regional

CURRENT METAR :
  • 082056Z AUTO 05007KT 10SM SCT070 11/M03 A3028 RMK AO2 SLP253 T01111028 56024

EXPIRED METARs :
  • 081956Z AUTO 04005KT 10SM CLR 12/M02 A3030 RMK AO2 SLP258 T01171022
  • 081856Z AUTO 09008KT 10SM CLR 11/M02 A3031 RMK AO2 SLP261 T01111022

TAF KAND
Valid from the 08 at 18:00 until the 09 at 18:00 UTC


081745Z 0818/0918 08008KT P6SM SCT060 BKN250
FM090000 04006KT P6SM BKN050
FM090600 06006KT P6SM OVC027
PROB30 0909/0911 4SM -RA BR OVC015
FM091100 07004KT P6SM OVC018
PROB30 0911/0914 4SM -RA BR OVC008
FM091400 15003KT 6SM -RA BR OVC007



MET'MAP, your aeronautical weather chart ! - Copyright ORBIFLY December 2007 - Disclaimer

ORBIFLY MET'MAP TEAM :

Programming & Development : Alexandra Zaïnal
Concept & original design : Baudouin d'Aumeries
Assistance for programming : Marc-Olivier Méhu
Technical & hardware support : Manuel Goepfert

Contact : metmap@orbifly.com




SOURCES & CREDITS :

   NOAA       Earth
Advisory